sensor_id;sensor_type;location;lat;lon;timestamp;P1;durP1;ratioP1;P2;durP2;ratioP2
16832;SDS011;8533;48.426;10.868;2024-02-21T00:00:37;4.87;;;2.70;;
16832;SDS011;8533;48.426;10.868;2024-02-21T00:03:03;4.37;;;2.23;;
16832;SDS011;8533;48.426;10.868;2024-02-21T00:05:29;7.37;;;3.30;;
16832;SDS011;8533;48.426;10.868;2024-02-21T00:07:55;5.17;;;2.90;;
16832;SDS011;8533;48.426;10.868;2024-02-21T00:10:20;6.10;;;2.97;;
16832;SDS011;8533;48.426;10.868;2024-02-21T00:12:45;7.87;;;3.23;;
16832;SDS011;8533;48.426;10.868;2024-02-21T00:15:11;7.40;;;3.07;;
16832;SDS011;8533;48.426;10.868;2024-02-21T00:17:37;6.80;;;3.03;;
16832;SDS011;8533;48.426;10.868;2024-02-21T00:20:02;8.10;;;2.80;;
16832;SDS011;8533;48.426;10.868;2024-02-21T00:22:27;7.27;;;3.30;;
16832;SDS011;8533;48.426;10.868;2024-02-21T00:24:56;6.97;;;2.80;;
16832;SDS011;8533;48.426;10.868;2024-02-21T00:27:23;8.47;;;2.97;;
16832;SDS011;8533;48.426;10.868;2024-02-21T00:29:48;6.37;;;2.97;;
16832;SDS011;8533;48.426;10.868;2024-02-21T00:32:13;6.07;;;2.90;;
16832;SDS011;8533;48.426;10.868;2024-02-21T00:34:38;5.07;;;3.10;;
16832;SDS011;8533;48.426;10.868;2024-02-21T00:37:04;6.00;;;3.00;;
16832;SDS011;8533;48.426;10.868;2024-02-21T00:39:29;5.47;;;2.77;;
16832;SDS011;8533;48.426;10.868;2024-02-21T00:41:55;5.40;;;3.13;;
16832;SDS011;8533;48.426;10.868;2024-02-21T00:44:20;6.00;;;2.67;;
16832;SDS011;8533;48.426;10.868;2024-02-21T00:46:45;6.00;;;2.80;;
16832;SDS011;8533;48.426;10.868;2024-02-21T00:49:12;4.67;;;2.83;;
16832;SDS011;8533;48.426;10.868;2024-02-21T00:51:37;9.73;;;3.27;;
16832;SDS011;8533;48.426;10.868;2024-02-21T00:54:02;6.70;;;2.80;;
16832;SDS011;8533;48.426;10.868;2024-02-21T00:56:28;7.20;;;3.07;;
16832;SDS011;8533;48.426;10.868;2024-02-21T00:58:54;8.47;;;3.37;;
16832;SDS011;8533;48.426;10.868;2024-02-21T01:01:23;7.33;;;2.83;;
16832;SDS011;8533;48.426;10.868;2024-02-21T01:03:50;9.53;;;3.00;;
16832;SDS011;8533;48.426;10.868;2024-02-21T01:06:16;8.33;;;2.53;;
16832;SDS011;8533;48.426;10.868;2024-02-21T01:08:41;5.50;;;2.97;;
16832;SDS011;8533;48.426;10.868;2024-02-21T01:11:06;9.37;;;3.27;;
16832;SDS011;8533;48.426;10.868;2024-02-21T01:13:31;5.07;;;3.00;;
16832;SDS011;8533;48.426;10.868;2024-02-21T01:15:58;5.10;;;2.40;;
16832;SDS011;8533;48.426;10.868;2024-02-21T01:18:23;4.33;;;2.77;;
16832;SDS011;8533;48.426;10.868;2024-02-21T01:20:48;5.60;;;2.40;;
16832;SDS011;8533;48.426;10.868;2024-02-21T01:23:13;8.67;;;3.07;;
16832;SDS011;8533;48.426;10.868;2024-02-21T01:25:39;5.23;;;3.07;;
16832;SDS011;8533;48.426;10.868;2024-02-21T01:28:04;9.63;;;2.73;;
16832;SDS011;8533;48.426;10.868;2024-02-21T01:30:30;10.47;;;3.40;;
16832;SDS011;8533;48.426;10.868;2024-02-21T01:32:55;10.37;;;2.80;;
16832;SDS011;8533;48.426;10.868;2024-02-21T01:35:20;4.70;;;2.77;;
16832;SDS011;8533;48.426;10.868;2024-02-21T01:37:45;6.57;;;2.63;;
16832;SDS011;8533;48.426;10.868;2024-02-21T01:40:11;7.77;;;2.70;;
16832;SDS011;8533;48.426;10.868;2024-02-21T01:42:40;6.60;;;3.07;;
16832;SDS011;8533;48.426;10.868;2024-02-21T01:45:08;2.70;;;2.47;;
16832;SDS011;8533;48.426;10.868;2024-02-21T01:47:34;7.10;;;2.90;;
16832;SDS011;8533;48.426;10.868;2024-02-21T01:49:59;5.30;;;2.80;;
16832;SDS011;8533;48.426;10.868;2024-02-21T01:52:27;6.10;;;2.60;;
16832;SDS011;8533;48.426;10.868;2024-02-21T01:54:53;4.00;;;2.60;;
16832;SDS011;8533;48.426;10.868;2024-02-21T01:57:19;7.50;;;2.30;;
16832;SDS011;8533;48.426;10.868;2024-02-21T01:59:44;5.03;;;2.60;;
16832;SDS011;8533;48.426;10.868;2024-02-21T02:02:10;4.73;;;2.87;;
16832;SDS011;8533;48.426;10.868;2024-02-21T02:04:37;4.30;;;2.93;;
16832;SDS011;8533;48.426;10.868;2024-02-21T02:07:03;4.57;;;2.83;;
16832;SDS011;8533;48.426;10.868;2024-02-21T02:09:31;4.73;;;2.37;;
16832;SDS011;8533;48.426;10.868;2024-02-21T02:11:57;5.67;;;2.77;;
16832;SDS011;8533;48.426;10.868;2024-02-21T02:14:23;7.07;;;3.03;;
16832;SDS011;8533;48.426;10.868;2024-02-21T02:16:48;5.33;;;3.20;;
16832;SDS011;8533;48.426;10.868;2024-02-21T02:19:14;6.33;;;2.97;;
16832;SDS011;8533;48.426;10.868;2024-02-21T02:21:41;5.37;;;3.07;;
16832;SDS011;8533;48.426;10.868;2024-02-21T02:24:10;4.70;;;2.67;;
16832;SDS011;8533;48.426;10.868;2024-02-21T02:26:39;5.80;;;2.63;;
16832;SDS011;8533;48.426;10.868;2024-02-21T02:29:04;8.33;;;2.93;;
16832;SDS011;8533;48.426;10.868;2024-02-21T02:31:29;6.37;;;2.93;;
16832;SDS011;8533;48.426;10.868;2024-02-21T02:33:55;9.17;;;2.90;;
16832;SDS011;8533;48.426;10.868;2024-02-21T02:36:20;6.87;;;2.83;;
16832;SDS011;8533;48.426;10.868;2024-02-21T02:38:45;3.87;;;2.60;;
16832;SDS011;8533;48.426;10.868;2024-02-21T02:41:11;7.80;;;3.07;;
16832;SDS011;8533;48.426;10.868;2024-02-21T02:43:36;4.60;;;2.70;;
16832;SDS011;8533;48.426;10.868;2024-02-21T02:46:04;7.03;;;2.67;;
16832;SDS011;8533;48.426;10.868;2024-02-21T02:48:29;9.97;;;3.13;;
16832;SDS011;8533;48.426;10.868;2024-02-21T02:50:55;6.03;;;2.60;;
16832;SDS011;8533;48.426;10.868;2024-02-21T02:53:20;5.80;;;3.07;;
16832;SDS011;8533;48.426;10.868;2024-02-21T02:55:45;4.80;;;2.70;;
16832;SDS011;8533;48.426;10.868;2024-02-21T02:58:11;6.17;;;3.07;;
16832;SDS011;8533;48.426;10.868;2024-02-21T03:00:36;2.87;;;2.43;;
16832;SDS011;8533;48.426;10.868;2024-02-21T03:03:03;4.80;;;2.77;;
16832;SDS011;8533;48.426;10.868;2024-02-21T03:05:29;5.20;;;2.77;;
16832;SDS011;8533;48.426;10.868;2024-02-21T03:07:54;6.90;;;2.83;;
16832;SDS011;8533;48.426;10.868;2024-02-21T03:10:20;7.77;;;2.90;;
16832;SDS011;8533;48.426;10.868;2024-02-21T03:12:45;6.37;;;2.80;;
16832;SDS011;8533;48.426;10.868;2024-02-21T03:15:11;7.17;;;3.23;;
16832;SDS011;8533;48.426;10.868;2024-02-21T03:17:37;7.77;;;3.07;;
16832;SDS011;8533;48.426;10.868;2024-02-21T03:20:03;5.23;;;2.60;;
16832;SDS011;8533;48.426;10.868;2024-02-21T03:22:36;9.50;;;3.30;;
16832;SDS011;8533;48.426;10.868;2024-02-21T03:25:01;8.27;;;2.97;;
16832;SDS011;8533;48.426;10.868;2024-02-21T03:27:27;9.63;;;3.03;;
16832;SDS011;8533;48.426;10.868;2024-02-21T03:29:52;9.50;;;3.10;;
16832;SDS011;8533;48.426;10.868;2024-02-21T03:32:18;3.63;;;2.70;;
16832;SDS011;8533;48.426;10.868;2024-02-21T03:35:04;4.13;;;2.43;;
16832;SDS011;8533;48.426;10.868;2024-02-21T03:37:29;3.67;;;2.63;;
16832;SDS011;8533;48.426;10.868;2024-02-21T03:39:55;4.40;;;2.43;;
16832;SDS011;8533;48.426;10.868;2024-02-21T03:42:20;6.00;;;2.80;;
16832;SDS011;8533;48.426;10.868;2024-02-21T03:44:45;3.53;;;2.73;;
16832;SDS011;8533;48.426;10.868;2024-02-21T03:47:11;3.63;;;2.40;;
16832;SDS011;8533;48.426;10.868;2024-02-21T03:49:36;6.77;;;2.80;;
16832;SDS011;8533;48.426;10.868;2024-02-21T03:52:02;4.60;;;2.77;;
16832;SDS011;8533;48.426;10.868;2024-02-21T03:54:27;8.93;;;3.23;;
16832;SDS011;8533;48.426;10.868;2024-02-21T03:56:53;3.63;;;2.40;;
16832;SDS011;8533;48.426;10.868;2024-02-21T03:59:18;3.83;;;3.00;;
16832;SDS011;8533;48.426;10.868;2024-02-21T04:01:43;5.33;;;2.43;;
16832;SDS011;8533;48.426;10.868;2024-02-21T04:04:09;5.77;;;3.03;;
16832;SDS011;8533;48.426;10.868;2024-02-21T04:06:35;5.57;;;2.70;;
16832;SDS011;8533;48.426;10.868;2024-02-21T04:09:00;7.30;;;3.07;;
16832;SDS011;8533;48.426;10.868;2024-02-21T04:11:25;3.67;;;2.40;;
16832;SDS011;8533;48.426;10.868;2024-02-21T04:13:51;7.17;;;3.10;;
16832;SDS011;8533;48.426;10.868;2024-02-21T04:16:16;7.00;;;3.13;;
16832;SDS011;8533;48.426;10.868;2024-02-21T04:18:42;5.10;;;2.17;;
16832;SDS011;8533;48.426;10.868;2024-02-21T04:21:08;5.70;;;2.90;;
16832;SDS011;8533;48.426;10.868;2024-02-21T04:23:34;3.67;;;2.60;;
16832;SDS011;8533;48.426;10.868;2024-02-21T04:25:59;6.30;;;2.83;;
16832;SDS011;8533;48.426;10.868;2024-02-21T04:28:24;8.90;;;2.90;;
16832;SDS011;8533;48.426;10.868;2024-02-21T04:30:49;5.53;;;2.43;;
16832;SDS011;8533;48.426;10.868;2024-02-21T04:33:15;5.13;;;2.40;;
16832;SDS011;8533;48.426;10.868;2024-02-21T04:35:40;4.07;;;2.60;;
16832;SDS011;8533;48.426;10.868;2024-02-21T04:38:05;5.70;;;2.73;;
16832;SDS011;8533;48.426;10.868;2024-02-21T04:40:31;6.73;;;2.70;;
16832;SDS011;8533;48.426;10.868;2024-02-21T04:42:57;4.50;;;2.63;;
16832;SDS011;8533;48.426;10.868;2024-02-21T04:45:23;6.17;;;2.57;;
16832;SDS011;8533;48.426;10.868;2024-02-21T04:47:48;3.43;;;2.37;;
16832;SDS011;8533;48.426;10.868;2024-02-21T04:50:13;3.27;;;2.20;;
16832;SDS011;8533;48.426;10.868;2024-02-21T04:52:39;4.93;;;2.67;;
16832;SDS011;8533;48.426;10.868;2024-02-21T04:55:04;5.07;;;3.00;;
16832;SDS011;8533;48.426;10.868;2024-02-21T04:57:29;7.10;;;2.83;;
16832;SDS011;8533;48.426;10.868;2024-02-21T04:59:55;8.17;;;3.00;;
16832;SDS011;8533;48.426;10.868;2024-02-21T05:02:20;3.07;;;2.17;;
16832;SDS011;8533;48.426;10.868;2024-02-21T05:04:47;4.63;;;2.43;;
16832;SDS011;8533;48.426;10.868;2024-02-21T05:07:13;4.47;;;2.40;;
16832;SDS011;8533;48.426;10.868;2024-02-21T05:09:38;6.03;;;2.27;;
16832;SDS011;8533;48.426;10.868;2024-02-21T05:12:03;5.20;;;2.33;;
16832;SDS011;8533;48.426;10.868;2024-02-21T05:14:29;4.20;;;2.27;;
16832;SDS011;8533;48.426;10.868;2024-02-21T05:16:54;4.20;;;2.20;;
16832;SDS011;8533;48.426;10.868;2024-02-21T05:19:20;3.30;;;2.33;;
16832;SDS011;8533;48.426;10.868;2024-02-21T05:21:45;6.30;;;2.37;;
16832;SDS011;8533;48.426;10.868;2024-02-21T05:24:11;3.10;;;2.20;;
16832;SDS011;8533;48.426;10.868;2024-02-21T05:26:36;3.30;;;2.43;;
16832;SDS011;8533;48.426;10.868;2024-02-21T05:29:02;3.60;;;2.50;;
16832;SDS011;8533;48.426;10.868;2024-02-21T05:31:29;4.57;;;2.13;;
16832;SDS011;8533;48.426;10.868;2024-02-21T05:34:19;6.67;;;2.77;;
16832;SDS011;8533;48.426;10.868;2024-02-21T05:36:46;6.60;;;2.40;;
16832;SDS011;8533;48.426;10.868;2024-02-21T05:39:12;4.87;;;1.90;;
16832;SDS011;8533;48.426;10.868;2024-02-21T05:41:38;3.43;;;2.10;;
16832;SDS011;8533;48.426;10.868;2024-02-21T05:44:03;4.87;;;2.13;;
16832;SDS011;8533;48.426;10.868;2024-02-21T05:46:28;4.53;;;1.80;;
16832;SDS011;8533;48.426;10.868;2024-02-21T05:48:54;3.00;;;1.93;;
16832;SDS011;8533;48.426;10.868;2024-02-21T05:51:19;4.17;;;2.00;;
16832;SDS011;8533;48.426;10.868;2024-02-21T05:53:44;1.60;;;1.50;;
16832;SDS011;8533;48.426;10.868;2024-02-21T05:56:12;2.77;;;1.73;;
16832;SDS011;8533;48.426;10.868;2024-02-21T05:58:38;2.03;;;1.80;;
16832;SDS011;8533;48.426;10.868;2024-02-21T06:01:04;4.43;;;2.10;;
16832;SDS011;8533;48.426;10.868;2024-02-21T06:03:30;2.60;;;1.93;;
16832;SDS011;8533;48.426;10.868;2024-02-21T06:05:55;4.57;;;2.20;;
16832;SDS011;8533;48.426;10.868;2024-02-21T06:08:21;4.97;;;2.60;;
16832;SDS011;8533;48.426;10.868;2024-02-21T06:10:46;3.57;;;2.00;;
16832;SDS011;8533;48.426;10.868;2024-02-21T06:13:13;2.53;;;1.90;;
16832;SDS011;8533;48.426;10.868;2024-02-21T06:15:38;5.80;;;2.30;;
16832;SDS011;8533;48.426;10.868;2024-02-21T06:18:04;4.43;;;2.33;;
16832;SDS011;8533;48.426;10.868;2024-02-21T06:20:29;4.10;;;2.10;;
16832;SDS011;8533;48.426;10.868;2024-02-21T06:22:54;5.07;;;1.90;;
16832;SDS011;8533;48.426;10.868;2024-02-21T06:25:19;6.33;;;2.30;;
16832;SDS011;8533;48.426;10.868;2024-02-21T06:27:45;2.60;;;2.03;;
16832;SDS011;8533;48.426;10.868;2024-02-21T06:30:10;8.83;;;2.33;;
16832;SDS011;8533;48.426;10.868;2024-02-21T06:32:36;4.20;;;2.20;;
16832;SDS011;8533;48.426;10.868;2024-02-21T06:35:01;2.13;;;1.93;;
16832;SDS011;8533;48.426;10.868;2024-02-21T06:37:27;6.40;;;2.73;;
16832;SDS011;8533;48.426;10.868;2024-02-21T06:39:52;2.63;;;1.90;;
16832;SDS011;8533;48.426;10.868;2024-02-21T06:42:17;3.73;;;1.70;;
16832;SDS011;8533;48.426;10.868;2024-02-21T06:44:43;3.10;;;1.93;;
16832;SDS011;8533;48.426;10.868;2024-02-21T06:47:09;2.50;;;2.00;;
16832;SDS011;8533;48.426;10.868;2024-02-21T06:49:35;4.50;;;1.97;;
16832;SDS011;8533;48.426;10.868;2024-02-21T06:52:02;4.73;;;1.83;;
16832;SDS011;8533;48.426;10.868;2024-02-21T06:54:28;4.53;;;2.10;;
16832;SDS011;8533;48.426;10.868;2024-02-21T06:56:53;2.27;;;1.57;;
16832;SDS011;8533;48.426;10.868;2024-02-21T06:59:18;4.57;;;1.83;;
16832;SDS011;8533;48.426;10.868;2024-02-21T07:01:45;5.50;;;1.77;;
16832;SDS011;8533;48.426;10.868;2024-02-21T07:04:11;5.33;;;2.13;;
16832;SDS011;8533;48.426;10.868;2024-02-21T07:06:36;7.83;;;2.17;;
16832;SDS011;8533;48.426;10.868;2024-02-21T07:09:02;2.67;;;1.90;;
16832;SDS011;8533;48.426;10.868;2024-02-21T07:11:27;4.87;;;2.10;;
16832;SDS011;8533;48.426;10.868;2024-02-21T07:13:53;5.67;;;2.30;;
16832;SDS011;8533;48.426;10.868;2024-02-21T07:16:18;5.83;;;2.33;;
16832;SDS011;8533;48.426;10.868;2024-02-21T07:18:43;5.80;;;2.50;;
16832;SDS011;8533;48.426;10.868;2024-02-21T07:21:08;8.97;;;3.93;;
16832;SDS011;8533;48.426;10.868;2024-02-21T07:23:34;2.77;;;2.10;;
16832;SDS011;8533;48.426;10.868;2024-02-21T07:25:59;5.80;;;2.37;;
16832;SDS011;8533;48.426;10.868;2024-02-21T07:28:24;3.90;;;2.23;;
16832;SDS011;8533;48.426;10.868;2024-02-21T07:30:49;3.93;;;2.10;;
16832;SDS011;8533;48.426;10.868;2024-02-21T07:33:15;6.33;;;2.27;;
16832;SDS011;8533;48.426;10.868;2024-02-21T07:35:40;3.77;;;2.10;;
16832;SDS011;8533;48.426;10.868;2024-02-21T07:38:07;4.30;;;1.80;;
16832;SDS011;8533;48.426;10.868;2024-02-21T07:40:33;3.00;;;1.90;;
16832;SDS011;8533;48.426;10.868;2024-02-21T07:42:59;3.90;;;2.10;;
16832;SDS011;8533;48.426;10.868;2024-02-21T07:45:25;3.00;;;1.93;;
16832;SDS011;8533;48.426;10.868;2024-02-21T07:47:51;3.83;;;1.80;;
16832;SDS011;8533;48.426;10.868;2024-02-21T07:50:16;3.73;;;1.60;;
16832;SDS011;8533;48.426;10.868;2024-02-21T07:52:42;6.10;;;2.20;;
16832;SDS011;8533;48.426;10.868;2024-02-21T07:55:08;4.13;;;1.63;;
16832;SDS011;8533;48.426;10.868;2024-02-21T07:57:35;2.30;;;1.40;;
16832;SDS011;8533;48.426;10.868;2024-02-21T08:00:00;2.23;;;1.27;;
16832;SDS011;8533;48.426;10.868;2024-02-21T08:02:26;4.57;;;1.83;;
16832;SDS011;8533;48.426;10.868;2024-02-21T08:04:51;3.00;;;1.53;;
16832;SDS011;8533;48.426;10.868;2024-02-21T08:07:16;3.80;;;1.80;;
16832;SDS011;8533;48.426;10.868;2024-02-21T08:09:41;5.23;;;1.90;;
16832;SDS011;8533;48.426;10.868;2024-02-21T08:12:07;1.80;;;1.70;;
16832;SDS011;8533;48.426;10.868;2024-02-21T08:14:32;2.13;;;1.80;;
16832;SDS011;8533;48.426;10.868;2024-02-21T08:16:57;2.07;;;1.83;;
16832;SDS011;8533;48.426;10.868;2024-02-21T08:19:24;4.13;;;1.80;;
16832;SDS011;8533;48.426;10.868;2024-02-21T08:21:49;2.13;;;1.50;;
16832;SDS011;8533;48.426;10.868;2024-02-21T08:24:15;2.73;;;1.83;;
16832;SDS011;8533;48.426;10.868;2024-02-21T08:26:41;1.70;;;1.43;;
16832;SDS011;8533;48.426;10.868;2024-02-21T08:29:06;3.17;;;1.67;;
16832;SDS011;8533;48.426;10.868;2024-02-21T08:31:32;6.17;;;1.70;;
16832;SDS011;8533;48.426;10.868;2024-02-21T08:33:57;2.50;;;1.87;;
16832;SDS011;8533;48.426;10.868;2024-02-21T08:38:55;1.47;;;1.37;;
16832;SDS011;8533;48.426;10.868;2024-02-21T08:41:21;2.97;;;1.60;;
16832;SDS011;8533;48.426;10.868;2024-02-21T08:43:48;1.73;;;1.60;;
16832;SDS011;8533;48.426;10.868;2024-02-21T08:46:14;1.40;;;1.30;;
16832;SDS011;8533;48.426;10.868;2024-02-21T08:48:39;3.07;;;1.20;;
16832;SDS011;8533;48.426;10.868;2024-02-21T08:51:05;3.57;;;1.40;;
16832;SDS011;8533;48.426;10.868;2024-02-21T08:53:30;2.23;;;1.33;;
16832;SDS011;8533;48.426;10.868;2024-02-21T08:55:56;1.93;;;1.57;;
16832;SDS011;8533;48.426;10.868;2024-02-21T08:58:21;2.17;;;1.40;;
16832;SDS011;8533;48.426;10.868;2024-02-21T09:00:48;3.53;;;1.43;;
16832;SDS011;8533;48.426;10.868;2024-02-21T09:03:13;1.43;;;1.30;;
16832;SDS011;8533;48.426;10.868;2024-02-21T09:05:39;3.67;;;1.40;;
16832;SDS011;8533;48.426;10.868;2024-02-21T09:08:06;3.13;;;1.60;;
16832;SDS011;8533;48.426;10.868;2024-02-21T09:10:31;4.80;;;1.73;;
16832;SDS011;8533;48.426;10.868;2024-02-21T09:12:56;2.23;;;1.30;;
16832;SDS011;8533;48.426;10.868;2024-02-21T09:15:22;2.57;;;1.40;;
16832;SDS011;8533;48.426;10.868;2024-02-21T09:17:49;1.97;;;1.27;;
16832;SDS011;8533;48.426;10.868;2024-02-21T09:20:14;2.77;;;1.40;;
16832;SDS011;8533;48.426;10.868;2024-02-21T09:22:41;3.23;;;1.43;;
16832;SDS011;8533;48.426;10.868;2024-02-21T09:25:06;4.07;;;1.80;;
16832;SDS011;8533;48.426;10.868;2024-02-21T09:27:32;1.50;;;1.40;;
16832;SDS011;8533;48.426;10.868;2024-02-21T09:29:57;1.57;;;1.47;;
16832;SDS011;8533;48.426;10.868;2024-02-21T09:32:23;4.63;;;1.80;;
16832;SDS011;8533;48.426;10.868;2024-02-21T09:34:48;6.00;;;1.20;;
16832;SDS011;8533;48.426;10.868;2024-02-21T09:37:13;2.87;;;1.60;;
16832;SDS011;8533;48.426;10.868;2024-02-21T09:39:39;2.57;;;1.60;;
16832;SDS011;8533;48.426;10.868;2024-02-21T09:42:05;4.20;;;1.90;;
16832;SDS011;8533;48.426;10.868;2024-02-21T09:44:38;3.77;;;1.67;;
16832;SDS011;8533;48.426;10.868;2024-02-21T09:47:09;1.27;;;1.17;;
16832;SDS011;8533;48.426;10.868;2024-02-21T09:49:38;2.40;;;1.47;;
16832;SDS011;8533;48.426;10.868;2024-02-21T09:52:06;6.30;;;1.37;;
16832;SDS011;8533;48.426;10.868;2024-02-21T09:54:33;2.63;;;1.50;;
16832;SDS011;8533;48.426;10.868;2024-02-21T09:57:02;4.80;;;1.57;;
16832;SDS011;8533;48.426;10.868;2024-02-21T09:59:28;1.90;;;1.30;;
16832;SDS011;8533;48.426;10.868;2024-02-21T10:01:55;2.53;;;1.30;;
16832;SDS011;8533;48.426;10.868;2024-02-21T10:04:21;4.73;;;1.30;;
16832;SDS011;8533;48.426;10.868;2024-02-21T10:06:46;2.83;;;1.50;;
16832;SDS011;8533;48.426;10.868;2024-02-21T10:11:48;3.03;;;1.33;;
16832;SDS011;8533;48.426;10.868;2024-02-21T10:14:14;2.87;;;1.27;;
16832;SDS011;8533;48.426;10.868;2024-02-21T10:16:40;3.33;;;1.40;;
16832;SDS011;8533;48.426;10.868;2024-02-21T10:19:06;3.03;;;1.40;;
16832;SDS011;8533;48.426;10.868;2024-02-21T10:21:31;3.30;;;1.20;;
16832;SDS011;8533;48.426;10.868;2024-02-21T10:23:56;1.97;;;1.40;;
16832;SDS011;8533;48.426;10.868;2024-02-21T10:26:22;1.90;;;1.20;;
16832;SDS011;8533;48.426;10.868;2024-02-21T10:28:47;2.70;;;1.27;;
16832;SDS011;8533;48.426;10.868;2024-02-21T10:31:25;2.20;;;1.17;;
16832;SDS011;8533;48.426;10.868;2024-02-21T10:33:56;2.20;;;1.30;;
16832;SDS011;8533;48.426;10.868;2024-02-21T10:36:22;2.10;;;1.33;;
16832;SDS011;8533;48.426;10.868;2024-02-21T10:38:51;3.13;;;1.60;;
16832;SDS011;8533;48.426;10.868;2024-02-21T10:41:19;3.80;;;1.20;;
16832;SDS011;8533;48.426;10.868;2024-02-21T10:43:46;1.90;;;1.20;;
16832;SDS011;8533;48.426;10.868;2024-02-21T10:46:21;2.70;;;1.27;;
16832;SDS011;8533;48.426;10.868;2024-02-21T10:48:48;1.13;;;1.03;;
16832;SDS011;8533;48.426;10.868;2024-02-21T10:51:33;2.73;;;1.13;;
16832;SDS011;8533;48.426;10.868;2024-02-21T10:56:56;0.80;;;0.80;;
16832;SDS011;8533;48.426;10.868;2024-02-21T10:59:23;5.67;;;1.17;;
16832;SDS011;8533;48.426;10.868;2024-02-21T11:01:51;1.13;;;1.00;;
16832;SDS011;8533;48.426;10.868;2024-02-21T11:04:17;2.00;;;1.10;;
16832;SDS011;8533;48.426;10.868;2024-02-21T11:06:43;2.33;;;1.40;;
16832;SDS011;8533;48.426;10.868;2024-02-21T11:09:10;1.77;;;1.10;;
16832;SDS011;8533;48.426;10.868;2024-02-21T11:11:37;4.20;;;1.23;;
16832;SDS011;8533;48.426;10.868;2024-02-21T11:16:45;2.33;;;1.30;;
16832;SDS011;8533;48.426;10.868;2024-02-21T11:19:21;4.67;;;1.27;;
16832;SDS011;8533;48.426;10.868;2024-02-21T11:21:50;2.27;;;1.07;;
16832;SDS011;8533;48.426;10.868;2024-02-21T11:24:29;3.37;;;1.10;;
16832;SDS011;8533;48.426;10.868;2024-02-21T11:27:42;1.10;;;1.00;;
16832;SDS011;8533;48.426;10.868;2024-02-21T11:29:46;3.60;;;1.07;;
16832;SDS011;8533;48.426;10.868;2024-02-21T11:32:17;4.70;;;1.30;;
16832;SDS011;8533;48.426;10.868;2024-02-21T11:34:53;1.20;;;1.00;;
16832;SDS011;8533;48.426;10.868;2024-02-21T11:37:26;1.13;;;0.90;;
16832;SDS011;8533;48.426;10.868;2024-02-21T11:39:52;1.07;;;1.00;;
16832;SDS011;8533;48.426;10.868;2024-02-21T11:42:18;1.80;;;1.10;;
16832;SDS011;8533;48.426;10.868;2024-02-21T11:44:43;2.87;;;1.10;;
16832;SDS011;8533;48.426;10.868;2024-02-21T11:47:08;2.63;;;1.00;;
16832;SDS011;8533;48.426;10.868;2024-02-21T11:49:38;2.60;;;1.00;;
16832;SDS011;8533;48.426;10.868;2024-02-21T11:52:07;1.00;;;0.90;;
16832;SDS011;8533;48.426;10.868;2024-02-21T11:54:33;2.43;;;1.17;;
16832;SDS011;8533;48.426;10.868;2024-02-21T11:56:59;2.63;;;1.00;;
16832;SDS011;8533;48.426;10.868;2024-02-21T11:59:25;1.40;;;1.03;;
16832;SDS011;8533;48.426;10.868;2024-02-21T12:01:50;1.53;;;1.03;;
16832;SDS011;8533;48.426;10.868;2024-02-21T12:04:21;1.70;;;1.20;;
16832;SDS011;8533;48.426;10.868;2024-02-21T12:06:48;1.10;;;1.03;;
16832;SDS011;8533;48.426;10.868;2024-02-21T12:09:17;1.40;;;1.30;;
16832;SDS011;8533;48.426;10.868;2024-02-21T12:11:43;1.20;;;1.10;;
16832;SDS011;8533;48.426;10.868;2024-02-21T12:14:09;1.17;;;1.07;;
16832;SDS011;8533;48.426;10.868;2024-02-21T12:16:34;0.70;;;0.70;;
16832;SDS011;8533;48.426;10.868;2024-02-21T12:19:03;0.73;;;0.73;;
16832;SDS011;8533;48.426;10.868;2024-02-21T12:21:30;2.07;;;1.00;;
16832;SDS011;8533;48.426;10.868;2024-02-21T12:23:57;1.27;;;1.17;;
16832;SDS011;8533;48.426;10.868;2024-02-21T12:26:25;2.03;;;1.10;;
16832;SDS011;8533;48.426;10.868;2024-02-21T12:28:51;1.37;;;1.17;;
16832;SDS011;8533;48.426;10.868;2024-02-21T12:31:18;1.10;;;1.00;;
16832;SDS011;8533;48.426;10.868;2024-02-21T12:33:43;1.50;;;1.00;;
16832;SDS011;8533;48.426;10.868;2024-02-21T12:36:09;1.47;;;1.20;;
16832;SDS011;8533;48.426;10.868;2024-02-21T12:38:34;3.33;;;1.43;;
16832;SDS011;8533;48.426;10.868;2024-02-21T12:41:00;1.50;;;1.20;;
16832;SDS011;8533;48.426;10.868;2024-02-21T12:43:26;3.40;;;1.60;;
16832;SDS011;8533;48.426;10.868;2024-02-21T12:45:51;2.20;;;1.30;;
16832;SDS011;8533;48.426;10.868;2024-02-21T12:48:17;1.50;;;1.10;;
16832;SDS011;8533;48.426;10.868;2024-02-21T12:50:48;2.33;;;1.20;;
16832;SDS011;8533;48.426;10.868;2024-02-21T12:53:15;0.90;;;0.90;;
16832;SDS011;8533;48.426;10.868;2024-02-21T12:55:41;1.23;;;1.13;;
16832;SDS011;8533;48.426;10.868;2024-02-21T12:58:06;1.60;;;1.00;;
16832;SDS011;8533;48.426;10.868;2024-02-21T13:00:32;1.23;;;1.10;;
16832;SDS011;8533;48.426;10.868;2024-02-21T13:02:57;1.10;;;1.00;;
16832;SDS011;8533;48.426;10.868;2024-02-21T13:05:23;1.00;;;0.83;;
16832;SDS011;8533;48.426;10.868;2024-02-21T13:07:48;1.20;;;0.83;;
16832;SDS011;8533;48.426;10.868;2024-02-21T13:10:14;2.03;;;1.23;;
16832;SDS011;8533;48.426;10.868;2024-02-21T13:12:39;1.40;;;1.10;;
16832;SDS011;8533;48.426;10.868;2024-02-21T13:15:05;1.53;;;0.97;;
16832;SDS011;8533;48.426;10.868;2024-02-21T13:17:30;1.40;;;0.73;;
16832;SDS011;8533;48.426;10.868;2024-02-21T13:19:57;2.60;;;1.10;;
16832;SDS011;8533;48.426;10.868;2024-02-21T13:22:22;1.37;;;0.90;;
16832;SDS011;8533;48.426;10.868;2024-02-21T13:24:50;3.07;;;1.20;;
16832;SDS011;8533;48.426;10.868;2024-02-21T13:27:16;1.07;;;0.97;;
16832;SDS011;8533;48.426;10.868;2024-02-21T13:29:41;2.93;;;0.90;;
16832;SDS011;8533;48.426;10.868;2024-02-21T13:32:06;1.73;;;0.80;;
16832;SDS011;8533;48.426;10.868;2024-02-21T13:34:32;1.53;;;0.97;;
16832;SDS011;8533;48.426;10.868;2024-02-21T13:36:57;2.50;;;1.00;;
16832;SDS011;8533;48.426;10.868;2024-02-21T13:39:24;1.73;;;1.30;;
16832;SDS011;8533;48.426;10.868;2024-02-21T13:41:49;2.00;;;0.90;;
16832;SDS011;8533;48.426;10.868;2024-02-21T13:44:15;1.77;;;0.90;;
16832;SDS011;8533;48.426;10.868;2024-02-21T13:46:40;1.00;;;0.90;;
16832;SDS011;8533;48.426;10.868;2024-02-21T13:49:06;0.90;;;0.73;;
16832;SDS011;8533;48.426;10.868;2024-02-21T13:51:32;3.47;;;1.00;;
16832;SDS011;8533;48.426;10.868;2024-02-21T13:53:58;3.80;;;1.20;;
16832;SDS011;8533;48.426;10.868;2024-02-21T13:56:24;1.23;;;1.00;;
16832;SDS011;8533;48.426;10.868;2024-02-21T13:58:50;1.07;;;0.97;;
16832;SDS011;8533;48.426;10.868;2024-02-21T14:01:15;0.80;;;0.80;;
16832;SDS011;8533;48.426;10.868;2024-02-21T14:03:40;0.90;;;0.90;;
16832;SDS011;8533;48.426;10.868;2024-02-21T14:06:06;1.10;;;1.00;;
16832;SDS011;8533;48.426;10.868;2024-02-21T14:08:31;1.20;;;0.80;;
16832;SDS011;8533;48.426;10.868;2024-02-21T14:10:59;0.80;;;0.73;;
16832;SDS011;8533;48.426;10.868;2024-02-21T14:13:25;2.47;;;0.80;;
16832;SDS011;8533;48.426;10.868;2024-02-21T14:15:50;0.93;;;0.80;;
16832;SDS011;8533;48.426;10.868;2024-02-21T14:18:16;1.17;;;1.07;;
16832;SDS011;8533;48.426;10.868;2024-02-21T14:20:42;1.57;;;1.20;;
16832;SDS011;8533;48.426;10.868;2024-02-21T14:23:08;2.73;;;1.33;;
16832;SDS011;8533;48.426;10.868;2024-02-21T14:25:33;2.20;;;1.30;;
16832;SDS011;8533;48.426;10.868;2024-02-21T14:27:58;1.33;;;1.10;;
16832;SDS011;8533;48.426;10.868;2024-02-21T14:30:25;0.77;;;0.77;;
16832;SDS011;8533;48.426;10.868;2024-02-21T14:32:51;1.03;;;0.83;;
16832;SDS011;8533;48.426;10.868;2024-02-21T14:35:16;1.17;;;0.90;;
16832;SDS011;8533;48.426;10.868;2024-02-21T14:37:42;1.27;;;0.80;;
16832;SDS011;8533;48.426;10.868;2024-02-21T14:40:07;1.20;;;1.10;;
16832;SDS011;8533;48.426;10.868;2024-02-21T14:42:32;2.23;;;0.97;;
16832;SDS011;8533;48.426;10.868;2024-02-21T14:44:59;5.80;;;1.00;;
16832;SDS011;8533;48.426;10.868;2024-02-21T14:47:28;3.10;;;1.00;;
16832;SDS011;8533;48.426;10.868;2024-02-21T14:49:57;1.30;;;0.73;;
16832;SDS011;8533;48.426;10.868;2024-02-21T14:52:23;1.33;;;0.97;;